createdAt,value
2022-12-02T00:01:31.448Z,64.63
2022-12-02T00:04:01.265Z,59.97
2022-12-02T00:06:33.538Z,60.08
2022-12-02T00:09:10.437Z,53.53
2022-12-02T00:11:43.137Z,51.92
2022-12-02T00:14:23.084Z,58.85
2022-12-02T00:16:53.302Z,58.40
2022-12-02T00:19:23.191Z,56.20
2022-12-02T00:21:54.015Z,56.30
2022-12-02T00:24:23.628Z,62.45
2022-12-02T00:26:53.335Z,63.88
2022-12-02T00:29:25.572Z,66.35
2022-12-02T00:31:55.256Z,62.17
2022-12-02T00:34:24.860Z,62.75
2022-12-02T00:36:54.554Z,62.55
2022-12-02T00:39:24.515Z,59.83
2022-12-02T00:41:54.322Z,63.22
2022-12-02T00:44:38.940Z,61.05
2022-12-02T00:47:08.550Z,55.25
2022-12-02T00:49:38.372Z,65.07
2022-12-02T00:52:08.052Z,58.60
2022-12-02T00:54:37.580Z,62.42
2022-12-02T00:57:07.228Z,61.47
2022-12-02T00:59:39.460Z,73.45
2022-12-02T01:02:09.097Z,62.67
2022-12-02T01:04:38.728Z,59.50
2022-12-02T01:07:08.477Z,68.90
2022-12-02T01:09:38.369Z,68.72
2022-12-02T01:12:08.338Z,65.70
2022-12-02T01:14:40.582Z,81.05
2022-12-02T01:17:10.247Z,64.38
2022-12-02T01:19:39.888Z,70.47
2022-12-02T01:22:09.546Z,75.97
2022-12-02T01:24:39.154Z,78.93
2022-12-02T01:27:08.794Z,77.10
2022-12-02T01:29:41.130Z,75.57
2022-12-02T01:32:10.866Z,71.30
2022-12-02T01:34:41.679Z,81.07
2022-12-02T01:37:11.579Z,85.68
2022-12-02T01:39:41.351Z,75.40
2022-12-02T01:42:11.931Z,79.75
2022-12-02T01:44:44.335Z,83.85
2022-12-02T01:47:14.006Z,83.93
2022-12-02T01:49:43.903Z,88.32
2022-12-02T01:52:13.756Z,95.40
2022-12-02T01:54:43.376Z,79.15
2022-12-02T01:57:15.913Z,97.13
2022-12-02T01:59:48.486Z,93.40
2022-12-02T02:02:31.963Z,83.38
2022-12-02T02:05:04.946Z,82.82
2022-12-02T02:07:36.829Z,88.70
2022-12-02T02:10:08.080Z,83.70
2022-12-02T02:12:38.033Z,92.53
2022-12-02T02:15:13.904Z,91.55
2022-12-02T02:17:43.880Z,94.85
2022-12-02T02:20:16.135Z,101.57
2022-12-02T02:22:49.810Z,84.40
2022-12-02T02:27:55.687Z,87.22
2022-12-02T02:30:25.820Z,86.82
2022-12-02T02:32:56.020Z,89.20
2022-12-02T02:35:26.035Z,90.72
2022-12-02T02:37:57.871Z,98.15
2022-12-02T02:40:32.359Z,102.68
2022-12-02T02:43:04.900Z,93.15
2022-12-02T02:45:38.582Z,93.53
2022-12-02T02:50:41.276Z,88.72
2022-12-02T02:53:11.600Z,87.63
2022-12-02T02:55:44.684Z,99.57
2022-12-02T02:58:21.364Z,82.28
2022-12-02T03:00:56.082Z,90.75
2022-12-02T03:03:29.487Z,88.75
2022-12-02T03:06:00.383Z,101.15
2022-12-02T03:08:32.257Z,90.18
2022-12-02T03:11:05.817Z,100.40
2022-12-02T03:13:38.882Z,92.25
2022-12-02T03:16:12.381Z,102.82
2022-12-02T03:18:44.387Z,94.03
2022-12-02T03:21:15.008Z,88.72
2022-12-02T03:23:44.821Z,99.70
2022-12-02T03:26:18.808Z,101.38
2022-12-02T03:28:50.061Z,86.93
2022-12-02T03:31:20.488Z,88.32
2022-12-02T03:33:51.182Z,89.68
2022-12-02T03:36:21.043Z,95.32
2022-12-02T03:38:50.803Z,90.93
2022-12-02T03:41:23.969Z,94.47
2022-12-02T03:43:53.743Z,102.35
2022-12-02T03:46:23.546Z,88.10
2022-12-02T03:48:53.683Z,89.88
2022-12-02T03:51:23.351Z,86.00
2022-12-02T03:53:53.283Z,90.05
2022-12-02T03:56:25.801Z,81.78
2022-12-02T03:58:56.230Z,90.63
2022-12-02T04:01:26.099Z,78.05
2022-12-02T04:03:55.843Z,83.82
2022-12-02T04:06:25.587Z,86.60
2022-12-02T04:08:55.258Z,91.45
2022-12-02T04:11:27.421Z,85.97
2022-12-02T04:13:57.140Z,86.28
2022-12-02T04:16:26.886Z,82.43
2022-12-02T04:18:56.673Z,92.10
2022-12-02T04:21:27.053Z,86.80
2022-12-02T04:23:57.010Z,86.70
2022-12-02T04:26:29.427Z,88.28
2022-12-02T04:28:59.014Z,87.57
2022-12-02T04:31:28.806Z,87.18
2022-12-02T04:33:58.525Z,81.00
2022-12-02T04:36:28.355Z,97.75
2022-12-02T04:38:58.079Z,86.22
2022-12-02T04:41:30.570Z,97.25
2022-12-02T04:44:00.276Z,83.55
2022-12-02T04:46:29.986Z,95.22
2022-12-02T04:48:59.772Z,91.18
2022-12-02T04:51:29.519Z,75.38
2022-12-02T04:53:59.394Z,76.43
2022-12-02T04:56:31.910Z,80.22
2022-12-02T04:59:01.579Z,81.53
2022-12-02T05:01:31.166Z,79.25
2022-12-02T05:04:00.956Z,80.30
2022-12-02T05:06:30.805Z,77.35
2022-12-02T05:09:00.395Z,81.40
2022-12-02T05:11:36.354Z,78.07
2022-12-02T05:14:06.476Z,85.78
2022-12-02T05:16:36.325Z,87.07
2022-12-02T05:19:06.155Z,84.75
2022-12-02T05:21:35.770Z,81.68
2022-12-02T05:24:05.328Z,68.47
2022-12-02T05:26:37.602Z,71.28
2022-12-02T05:29:10.333Z,71.93
2022-12-02T05:31:40.070Z,74.88
2022-12-02T05:34:09.869Z,73.82
2022-12-02T05:36:39.487Z,70.18
2022-12-02T05:39:09.175Z,75.10
2022-12-02T05:41:41.721Z,66.28
2022-12-02T05:44:21.972Z,64.80
2022-12-02T05:46:52.697Z,68.47
2022-12-02T05:49:24.088Z,74.45
2022-12-02T05:51:58.281Z,74.50
2022-12-02T05:54:29.323Z,61.95
2022-12-02T05:57:06.075Z,72.13
2022-12-02T05:59:35.706Z,58.88
2022-12-02T06:02:05.753Z,83.82
2022-12-02T06:04:36.264Z,78.93
2022-12-02T06:07:14.863Z,61.08
2022-12-02T06:09:45.702Z,80.63
2022-12-02T06:12:21.110Z,78.65
2022-12-02T06:14:55.004Z,85.55
2022-12-02T06:17:25.267Z,71.47
2022-12-02T06:19:57.265Z,82.25
2022-12-02T06:22:32.918Z,67.75
2022-12-02T06:25:04.361Z,73.53
2022-12-02T06:27:37.186Z,68.15
2022-12-02T06:30:10.935Z,77.30
2022-12-02T06:35:25.020Z,71.00
2022-12-02T06:37:58.438Z,63.90
2022-12-02T06:40:31.280Z,66.95
2022-12-02T06:43:10.279Z,73.23
2022-12-02T06:45:40.045Z,68.85
2022-12-02T06:48:30.589Z,61.53
2022-12-02T06:51:03.418Z,61.70
2022-12-02T06:53:38.735Z,59.17
2022-12-02T06:56:14.496Z,65.82
2022-12-02T06:58:49.353Z,62.03
2022-12-02T07:01:24.952Z,60.35
2022-12-02T07:04:18.068Z,62.63
2022-12-02T07:06:52.828Z,62.80
2022-12-02T07:09:32.005Z,67.07
2022-12-02T07:12:03.150Z,62.10
2022-12-02T07:14:47.312Z,58.42
2022-12-02T07:17:22.959Z,70.45
2022-12-02T07:19:59.012Z,64.03
2022-12-02T07:22:34.838Z,60.28
2022-12-02T07:25:33.680Z,60.50
2022-12-02T07:28:05.009Z,58.15
2022-12-02T07:30:39.781Z,68.03
2022-12-02T07:33:10.177Z,62.80
2022-12-02T07:35:39.908Z,51.85
2022-12-02T07:38:09.597Z,66.15
2022-12-02T07:40:40.350Z,53.80
2022-12-02T07:43:10.126Z,58.85
2022-12-02T07:45:42.618Z,50.08
2022-12-02T07:48:12.443Z,57.90
2022-12-02T07:50:42.521Z,56.45
2022-12-02T07:53:12.821Z,64.22
2022-12-02T07:55:42.802Z,47.28
2022-12-02T07:58:12.551Z,47.53
2022-12-02T08:00:44.930Z,64.20
2022-12-02T08:03:14.489Z,50.92
2022-12-02T08:05:44.287Z,61.08
2022-12-02T08:08:17.281Z,46.47
2022-12-02T08:10:47.399Z,47.92
2022-12-02T08:13:17.937Z,53.05
2022-12-02T08:15:54.085Z,53.10
2022-12-02T08:18:23.906Z,52.17
2022-12-02T08:20:53.683Z,49.55
2022-12-02T08:23:23.616Z,49.97
2022-12-02T08:25:53.518Z,45.58
2022-12-02T08:28:23.241Z,43.92
2022-12-02T08:30:55.664Z,54.67
2022-12-02T08:33:25.496Z,37.08
2022-12-02T08:35:55.363Z,49.58
2022-12-02T08:38:24.996Z,46.25
2022-12-02T08:40:54.798Z,39.05
2022-12-02T08:43:25.015Z,42.05
2022-12-02T08:45:57.409Z,45.60
2022-12-02T08:48:27.324Z,43.47
2022-12-02T08:50:57.880Z,41.35
2022-12-02T08:56:02.359Z,46.05
2022-12-02T08:58:32.260Z,46.40
2022-12-02T09:01:04.790Z,35.45
2022-12-02T09:03:34.723Z,38.15
2022-12-02T09:06:04.749Z,42.92
2022-12-02T09:08:34.907Z,39.25
2022-12-02T09:11:04.608Z,37.55
2022-12-02T09:13:34.417Z,36.55
2022-12-02T09:16:09.866Z,41.80
2022-12-02T09:18:39.901Z,37.90
2022-12-02T09:21:09.700Z,37.58
2022-12-02T09:23:39.441Z,31.77
2022-12-02T09:26:09.504Z,42.30
2022-12-02T09:28:39.102Z,38.35
2022-12-02T09:31:11.452Z,34.88
2022-12-02T09:33:41.320Z,35.65
2022-12-02T09:36:11.491Z,33.60
2022-12-02T09:38:41.742Z,40.83
2022-12-02T09:41:11.561Z,31.83
2022-12-02T09:43:42.473Z,35.38
2022-12-02T09:46:18.423Z,35.45
2022-12-02T09:48:51.317Z,28.75
2022-12-02T09:51:21.212Z,29.48
2022-12-02T09:53:51.011Z,35.42
2022-12-02T09:56:22.907Z,33.13
2022-12-02T09:58:54.749Z,34.70
2022-12-02T10:01:28.868Z,27.45
2022-12-02T10:03:58.717Z,34.75
2022-12-02T10:06:31.911Z,30.70
2022-12-02T10:09:01.893Z,31.27
2022-12-02T10:11:35.392Z,30.02
2022-12-02T10:14:07.150Z,37.33
2022-12-02T10:16:41.204Z,34.05
2022-12-02T10:19:15.301Z,31.88
2022-12-02T10:21:45.254Z,29.52
2022-12-02T10:24:15.313Z,36.50
2022-12-02T10:26:48.864Z,35.38
2022-12-02T10:29:21.419Z,28.55
2022-12-02T10:32:02.048Z,31.13
2022-12-02T10:34:33.674Z,36.30
2022-12-02T10:37:19.317Z,35.83
2022-12-02T10:39:49.179Z,29.77
2022-12-02T10:42:21.729Z,30.05
2022-12-02T10:45:11.975Z,26.95
2022-12-02T10:47:44.621Z,29.42
2022-12-02T10:50:22.773Z,32.10
2022-12-02T10:55:30.733Z,35.75
2022-12-02T10:58:01.602Z,29.85
2022-12-02T11:00:31.310Z,27.95
2022-12-02T11:03:08.008Z,34.25
2022-12-02T11:05:38.615Z,32.03
2022-12-02T11:08:20.303Z,25.38
2022-12-02T11:10:52.162Z,26.38
2022-12-02T11:13:51.220Z,31.88
2022-12-02T11:16:53.857Z,30.85
2022-12-02T11:19:46.898Z,34.97
2022-12-02T11:22:46.397Z,30.73
2022-12-02T11:25:47.863Z,22.70
2022-12-02T11:28:47.517Z,40.28
2022-12-02T11:31:27.722Z,31.70
2022-12-02T11:34:06.506Z,37.83
2022-12-02T11:36:39.372Z,38.67
2022-12-02T11:39:10.584Z,36.45
2022-12-02T11:42:10.009Z,34.00
2022-12-02T11:44:39.636Z,36.13
2022-12-02T11:47:09.390Z,34.95
2022-12-02T11:49:40.809Z,36.35
2022-12-02T11:52:25.378Z,33.92
2022-12-02T11:55:00.425Z,38.05
2022-12-02T11:57:32.196Z,37.40
2022-12-02T12:00:01.977Z,31.83
2022-12-02T12:02:31.637Z,38.00
2022-12-02T12:05:04.671Z,35.25
2022-12-02T12:07:48.650Z,31.27
2022-12-02T12:13:20.149Z,45.28
2022-12-02T12:15:55.556Z,30.60
2022-12-02T12:18:39.628Z,40.90
2022-12-02T12:21:10.052Z,36.60
2022-12-02T12:23:46.745Z,43.63
2022-12-02T12:26:36.273Z,38.95
2022-12-02T12:29:08.760Z,45.28
2022-12-02T12:31:42.695Z,36.53
2022-12-02T12:34:13.201Z,45.65
2022-12-02T12:36:43.018Z,37.25
2022-12-02T12:39:16.606Z,38.75
2022-12-02T12:42:02.534Z,35.13
2022-12-02T12:44:33.246Z,33.78
2022-12-02T12:47:04.604Z,37.75
2022-12-02T12:49:35.687Z,41.45
2022-12-02T12:52:06.158Z,37.40
2022-12-02T12:54:38.762Z,32.97
2022-12-02T12:57:08.501Z,34.10
2022-12-02T12:59:38.155Z,47.53
2022-12-02T13:02:07.973Z,29.15
2022-12-02T13:04:37.791Z,33.08
2022-12-02T13:10:15.745Z,37.28
2022-12-02T13:12:46.626Z,39.80
2022-12-02T13:15:16.355Z,40.25
2022-12-02T13:17:49.500Z,37.50
2022-12-02T13:20:20.307Z,41.63
2022-12-02T13:22:50.510Z,41.22
2022-12-02T13:25:23.083Z,38.05
2022-12-02T13:27:52.748Z,43.78
2022-12-02T13:30:26.936Z,43.20
2022-12-02T13:32:56.829Z,46.55
2022-12-02T13:35:27.658Z,44.28
2022-12-02T13:38:00.205Z,42.47
2022-12-02T13:40:32.713Z,46.53
2022-12-02T13:43:02.829Z,52.58
2022-12-02T13:45:34.717Z,33.90
2022-12-02T13:48:09.623Z,42.25
2022-12-02T13:50:42.616Z,45.92
2022-12-02T13:55:50.746Z,44.40
2022-12-02T13:58:21.006Z,36.50
2022-12-02T14:00:53.838Z,45.65
2022-12-02T14:03:23.909Z,39.33
2022-12-02T14:05:53.842Z,42.22
2022-12-02T14:08:23.531Z,46.60
2022-12-02T14:10:56.015Z,36.90
2022-12-02T14:13:26.014Z,48.05
2022-12-02T14:15:55.708Z,41.78
2022-12-02T14:18:25.615Z,42.25
2022-12-02T14:20:55.178Z,39.17
2022-12-02T14:23:24.758Z,40.90
2022-12-02T14:25:57.036Z,43.90
2022-12-02T14:28:27.029Z,47.88
2022-12-02T14:30:57.556Z,44.10
2022-12-02T14:36:02.226Z,48.92
2022-12-02T14:38:32.140Z,36.90
2022-12-02T14:41:04.796Z,51.88
2022-12-02T14:43:35.052Z,47.35
2022-12-02T14:46:04.808Z,41.00
2022-12-02T14:48:34.500Z,38.65
2022-12-02T14:51:04.892Z,42.58
2022-12-02T14:53:34.448Z,43.50
2022-12-02T14:56:06.821Z,50.72
2022-12-02T14:58:36.691Z,45.97
2022-12-02T15:01:06.430Z,41.75
2022-12-02T15:03:36.054Z,37.85
2022-12-02T15:06:05.702Z,30.90
2022-12-02T15:08:35.341Z,30.50
2022-12-02T15:11:07.726Z,35.42
2022-12-02T15:13:37.617Z,31.92
2022-12-02T15:16:07.882Z,35.88
2022-12-02T15:18:38.102Z,19.90
2022-12-02T15:21:13.684Z,24.73
2022-12-02T15:23:43.773Z,23.02
2022-12-02T15:26:16.404Z,26.92
2022-12-02T15:28:46.292Z,30.52
2022-12-02T15:31:17.979Z,24.80
2022-12-02T15:33:47.907Z,27.67
2022-12-02T15:36:17.611Z,27.80
2022-12-02T15:38:47.524Z,25.60
2022-12-02T15:41:20.347Z,24.25
2022-12-02T15:43:53.828Z,26.60
2022-12-02T15:46:24.424Z,25.90
2022-12-02T15:48:54.154Z,23.48
2022-12-02T15:51:23.977Z,23.38
2022-12-02T15:53:56.040Z,28.08
2022-12-02T15:56:29.515Z,25.00
2022-12-02T15:58:59.190Z,24.67
2022-12-02T16:01:29.149Z,19.98
2022-12-02T16:03:58.954Z,23.23
2022-12-02T16:06:28.546Z,22.80
2022-12-02T16:08:58.494Z,30.75
2022-12-02T16:11:30.821Z,21.80
2022-12-02T16:14:00.450Z,26.73
2022-12-02T16:16:30.251Z,20.83
2022-12-02T16:18:59.913Z,28.10
2022-12-02T16:21:29.557Z,33.78
2022-12-02T16:23:59.339Z,29.13
2022-12-02T16:26:31.686Z,36.00
2022-12-02T16:29:01.481Z,33.42
2022-12-02T16:31:31.143Z,36.17
2022-12-02T16:34:00.842Z,37.70
2022-12-02T16:36:32.716Z,38.95
2022-12-02T16:39:02.406Z,31.73
2022-12-02T16:41:34.578Z,38.10
2022-12-02T16:44:04.205Z,39.58
2022-12-02T16:46:34.277Z,45.55
2022-12-02T16:49:03.960Z,47.70
2022-12-02T16:51:36.316Z,46.08
2022-12-02T16:54:06.010Z,48.30
2022-12-02T16:56:38.313Z,38.92
2022-12-02T16:59:07.952Z,38.17
2022-12-02T17:01:37.614Z,48.65
2022-12-02T17:04:07.445Z,49.10
2022-12-02T17:06:37.448Z,50.60
2022-12-02T17:09:07.210Z,47.55
2022-12-02T17:11:39.803Z,61.08
2022-12-02T17:14:09.531Z,72.60
2022-12-02T17:16:39.334Z,62.53
2022-12-02T17:19:09.473Z,61.70
2022-12-02T17:21:39.185Z,50.55
2022-12-02T17:24:09.570Z,54.47
2022-12-02T17:26:42.086Z,60.95
2022-12-02T17:29:11.680Z,52.65
2022-12-02T17:31:43.583Z,42.15
2022-12-02T17:34:13.831Z,48.80
2022-12-02T17:36:44.785Z,48.60
2022-12-02T17:39:16.469Z,45.42
2022-12-02T17:41:48.782Z,59.70
2022-12-02T17:44:18.513Z,56.70
2022-12-02T17:46:48.655Z,49.22
2022-12-02T17:49:18.270Z,56.22
2022-12-02T17:52:18.260Z,57.45
2022-12-02T17:54:37.916Z,52.65
2022-12-02T17:57:10.140Z,48.58
2022-12-02T17:59:39.817Z,51.00
2022-12-02T18:02:09.584Z,45.13
2022-12-02T18:04:44.167Z,55.53
2022-12-02T18:07:14.464Z,51.97
2022-12-02T18:09:44.405Z,57.55
2022-12-02T18:12:16.703Z,46.95
2022-12-02T18:14:46.411Z,41.88
2022-12-02T18:17:16.413Z,58.58
2022-12-02T18:19:46.281Z,52.80
2022-12-02T18:22:15.960Z,47.33
2022-12-02T18:24:45.723Z,53.85
2022-12-02T18:27:18.034Z,52.10
2022-12-02T18:29:47.607Z,42.22
2022-12-02T18:32:17.253Z,53.42
2022-12-02T18:34:47.061Z,61.55
2022-12-02T18:37:16.830Z,51.17
2022-12-02T18:39:46.473Z,52.92
2022-12-02T18:42:18.807Z,56.97
2022-12-02T18:44:48.452Z,56.75
2022-12-02T18:47:18.112Z,52.28
2022-12-02T18:49:47.871Z,45.20
2022-12-02T18:52:17.581Z,56.97
2022-12-02T18:54:47.245Z,56.20
2022-12-02T18:57:19.733Z,50.42
2022-12-02T18:59:49.387Z,47.95
2022-12-02T19:02:19.158Z,54.28
2022-12-02T19:04:49.924Z,51.38
2022-12-02T19:07:20.156Z,56.90
2022-12-02T19:09:53.604Z,44.22
2022-12-02T19:12:26.545Z,51.90
2022-12-02T19:14:56.263Z,63.28
2022-12-02T19:17:26.012Z,52.15
2022-12-02T19:19:55.631Z,49.47
2022-12-02T19:22:25.316Z,51.53
2022-12-02T19:24:55.231Z,50.13
2022-12-02T19:27:56.382Z,54.35
2022-12-02T19:30:17.905Z,64.15
2022-12-02T19:32:47.592Z,43.83
2022-12-02T19:35:17.190Z,43.60
2022-12-02T19:37:47.026Z,51.50
2022-12-02T19:40:17.125Z,54.42
2022-12-02T19:42:49.909Z,52.97
2022-12-02T19:45:20.126Z,51.97
2022-12-02T19:47:50.082Z,49.78
2022-12-02T19:50:20.175Z,47.13
2022-12-02T19:52:50.189Z,58.15
2022-12-02T19:55:21.155Z,48.05
2022-12-02T19:57:53.671Z,50.63
2022-12-02T20:00:24.450Z,42.03
2022-12-02T20:02:54.527Z,47.80
2022-12-02T20:05:24.598Z,30.00
2022-12-02T20:07:54.679Z,44.90
2022-12-02T20:10:25.082Z,35.53
2022-12-02T20:12:57.399Z,39.92
2022-12-02T20:15:27.036Z,44.35
2022-12-02T20:17:57.765Z,47.38
2022-12-02T20:20:27.552Z,44.15
2022-12-02T20:22:57.461Z,36.85
2022-12-02T20:25:27.434Z,36.85
2022-12-02T20:27:59.771Z,45.33
2022-12-02T20:30:29.463Z,53.80
2022-12-02T20:32:59.214Z,54.78
2022-12-02T20:35:28.988Z,31.05
2022-12-02T20:38:00.453Z,40.83
2022-12-02T20:40:30.693Z,40.55
2022-12-02T20:43:03.157Z,42.60
2022-12-02T20:45:32.961Z,32.67
2022-12-02T20:48:02.901Z,52.22
2022-12-02T20:50:32.803Z,45.08
2022-12-02T20:53:02.527Z,34.42
2022-12-02T20:55:32.227Z,46.78
2022-12-02T20:58:04.658Z,33.65
2022-12-02T21:00:34.950Z,36.80
2022-12-02T21:03:04.629Z,36.08
2022-12-02T21:05:35.869Z,40.15
2022-12-02T21:08:05.634Z,41.95
2022-12-02T21:10:35.659Z,38.80
2022-12-02T21:13:08.005Z,38.60
2022-12-02T21:15:38.303Z,32.40
2022-12-02T21:18:08.160Z,36.95
2022-12-02T21:20:37.986Z,32.45
2022-12-02T21:23:07.764Z,37.88
2022-12-02T21:25:37.648Z,37.60
2022-12-02T21:28:09.933Z,32.47
2022-12-02T21:30:42.488Z,41.05
2022-12-02T21:33:12.217Z,28.90
2022-12-02T21:35:41.859Z,30.10
2022-12-02T21:38:11.552Z,32.65
2022-12-02T21:40:41.448Z,33.47
2022-12-02T21:43:16.347Z,36.53
2022-12-02T21:45:46.647Z,31.08
2022-12-02T21:48:16.468Z,32.47
2022-12-02T21:50:46.286Z,31.63
2022-12-02T21:53:15.890Z,33.55
2022-12-02T21:55:45.689Z,27.75
2022-12-02T21:58:17.986Z,32.95
2022-12-02T22:00:47.761Z,32.30
2022-12-02T22:03:17.524Z,31.60
2022-12-02T22:05:47.258Z,32.85
2022-12-02T22:08:17.135Z,39.42
2022-12-02T22:10:46.898Z,32.42
2022-12-02T22:13:19.544Z,33.78
2022-12-02T22:15:49.895Z,36.77
2022-12-02T22:18:19.948Z,42.15
2022-12-02T22:20:49.856Z,36.75
2022-12-02T22:23:20.177Z,37.15
2022-12-02T22:25:50.107Z,45.13
2022-12-02T22:28:22.658Z,36.92
2022-12-02T22:30:52.590Z,42.13
2022-12-02T22:33:22.809Z,43.65
2022-12-02T22:35:53.018Z,31.42
2022-12-02T22:38:22.825Z,35.53
2022-12-02T22:40:52.660Z,28.98
2022-12-02T22:43:25.018Z,29.25
2022-12-02T22:45:54.972Z,33.85
2022-12-02T22:48:24.860Z,33.35
2022-12-02T22:50:54.760Z,25.95
2022-12-02T22:53:24.843Z,28.25
2022-12-02T22:55:54.619Z,24.05
2022-12-02T22:58:27.205Z,30.45
2022-12-02T23:00:57.162Z,23.73
2022-12-02T23:03:27.022Z,25.67
2022-12-02T23:05:56.725Z,21.27
2022-12-02T23:08:26.567Z,32.20
2022-12-02T23:10:56.280Z,29.70
2022-12-02T23:13:28.657Z,25.35
2022-12-02T23:15:58.468Z,22.50
2022-12-02T23:18:28.145Z,27.27
2022-12-02T23:20:57.842Z,26.17
2022-12-02T23:23:27.516Z,28.42
2022-12-02T23:25:57.309Z,26.27
2022-12-02T23:28:29.641Z,27.63
2022-12-02T23:30:59.522Z,20.80
2022-12-02T23:33:29.515Z,20.48
2022-12-02T23:35:59.297Z,27.27
2022-12-02T23:38:30.226Z,28.95
2022-12-02T23:40:59.842Z,29.38
2022-12-02T23:43:32.014Z,27.92
2022-12-02T23:46:01.884Z,26.02
2022-12-02T23:48:31.585Z,25.23
2022-12-02T23:51:01.197Z,26.25
2022-12-02T23:53:30.859Z,28.33
2022-12-02T23:56:01.121Z,28.50
2022-12-02T23:58:33.966Z,31.05
